sensor_id;sensor_type;location;lat;lon;timestamp;pressure;altitude;pressure_sealevel;temperature;humidity
63339;BME280;47485;51.378;-1.342;2023-01-26T00:01:07;101521.56;;;1.62;35.44
63339;BME280;47485;51.378;-1.342;2023-01-26T00:03:36;101524.93;;;-2.14;40.01
63339;BME280;47485;51.378;-1.342;2023-01-26T00:06:03;101525.22;;;-2.38;40.47
63339;BME280;47485;51.378;-1.342;2023-01-26T00:08:34;101522.17;;;-0.58;37.81
63339;BME280;47485;51.378;-1.342;2023-01-26T00:11:03;101522.15;;;0.98;36.41
63339;BME280;47485;51.378;-1.342;2023-01-26T00:13:31;101527.85;;;-0.67;39.34
63339;BME280;47485;51.378;-1.342;2023-01-26T00:15:58;101528.03;;;-0.63;38.01
63339;BME280;47485;51.378;-1.342;2023-01-26T00:18:24;101526.46;;;1.36;35.12
63339;BME280;47485;51.378;-1.342;2023-01-26T00:20:54;101520.89;;;2.90;34.24
63339;BME280;47485;51.378;-1.342;2023-01-26T00:23:20;101511.13;;;4.01;32.71
63339;BME280;47485;51.378;-1.342;2023-01-26T00:25:47;101523.54;;;1.08;36.77
63339;BME280;47485;51.378;-1.342;2023-01-26T00:28:14;101527.25;;;-1.48;38.73
63339;BME280;47485;51.378;-1.342;2023-01-26T00:30:41;101525.58;;;-0.14;37.62
63339;BME280;47485;51.378;-1.342;2023-01-26T00:33:09;101525.65;;;-0.15;36.63
63339;BME280;47485;51.378;-1.342;2023-01-26T00:35:36;101520.59;;;0.94;35.68
63339;BME280;47485;51.378;-1.342;2023-01-26T00:38:03;101520.13;;;0.73;35.20
63339;BME280;47485;51.378;-1.342;2023-01-26T00:40:30;101519.03;;;2.18;34.51
63339;BME280;47485;51.378;-1.342;2023-01-26T00:42:57;101520.93;;;-0.26;36.13
63339;BME280;47485;51.378;-1.342;2023-01-26T00:45:24;101517.18;;;2.32;33.92
63339;BME280;47485;51.378;-1.342;2023-01-26T00:47:51;101512.00;;;3.57;31.98
63339;BME280;47485;51.378;-1.342;2023-01-26T00:50:18;101504.82;;;3.38;32.29
63339;BME280;47485;51.378;-1.342;2023-01-26T00:52:44;101518.76;;;-3.16;40.45
63339;BME280;47485;51.378;-1.342;2023-01-26T00:55:11;101515.54;;;-1.42;36.53
63339;BME280;47485;51.378;-1.342;2023-01-26T00:57:38;101509.30;;;1.15;34.85
63339;BME280;47485;51.378;-1.342;2023-01-26T01:00:07;101513.63;;;2.55;35.29
63339;BME280;47485;51.378;-1.342;2023-01-26T01:02:33;101512.65;;;2.45;33.91
63339;BME280;47485;51.378;-1.342;2023-01-26T01:05:01;101514.77;;;1.35;34.30
63339;BME280;47485;51.378;-1.342;2023-01-26T01:07:27;101513.64;;;2.85;33.36
63339;BME280;47485;51.378;-1.342;2023-01-26T01:09:54;101511.82;;;1.42;33.88
63339;BME280;47485;51.378;-1.342;2023-01-26T01:12:21;101514.32;;;0.01;36.04
63339;BME280;47485;51.378;-1.342;2023-01-26T01:14:47;101511.56;;;0.41;35.19
63339;BME280;47485;51.378;-1.342;2023-01-26T01:17:14;101515.14;;;-1.01;36.43
63339;BME280;47485;51.378;-1.342;2023-01-26T01:19:41;101512.29;;;-2.34;37.21
63339;BME280;47485;51.378;-1.342;2023-01-26T01:22:09;101506.00;;;1.48;34.47
63339;BME280;47485;51.378;-1.342;2023-01-26T01:24:36;101510.36;;;2.26;33.71
63339;BME280;47485;51.378;-1.342;2023-01-26T01:27:03;101517.18;;;0.85;34.48
63339;BME280;47485;51.378;-1.342;2023-01-26T01:29:30;101515.21;;;3.82;31.60
63339;BME280;47485;51.378;-1.342;2023-01-26T01:31:57;101521.54;;;2.52;31.74
63339;BME280;47485;51.378;-1.342;2023-01-26T01:34:25;101516.40;;;3.90;30.82
63339;BME280;47485;51.378;-1.342;2023-01-26T01:36:52;101521.98;;;0.90;32.37
63339;BME280;47485;51.378;-1.342;2023-01-26T01:39:19;101519.94;;;0.96;32.54
63339;BME280;47485;51.378;-1.342;2023-01-26T01:41:46;101519.48;;;-2.56;37.60
63339;BME280;47485;51.378;-1.342;2023-01-26T01:44:15;101514.29;;;1.38;34.33
63339;BME280;47485;51.378;-1.342;2023-01-26T01:46:45;101518.59;;;-0.34;37.27
63339;BME280;47485;51.378;-1.342;2023-01-26T01:49:17;101526.77;;;-2.72;42.10
63339;BME280;47485;51.378;-1.342;2023-01-26T01:51:48;101522.10;;;-2.10;38.65
63339;BME280;47485;51.378;-1.342;2023-01-26T01:54:21;101531.77;;;-2.83;41.05
63339;BME280;47485;51.378;-1.342;2023-01-26T01:56:52;101533.14;;;-5.79;44.04
63339;BME280;47485;51.378;-1.342;2023-01-26T01:59:22;101535.13;;;-5.86;44.74
63339;BME280;47485;51.378;-1.342;2023-01-26T02:01:50;101541.59;;;-5.74;43.54
63339;BME280;47485;51.378;-1.342;2023-01-26T02:04:19;101539.08;;;-2.20;39.13
63339;BME280;47485;51.378;-1.342;2023-01-26T02:06:48;101531.80;;;-0.36;37.29
63339;BME280;47485;51.378;-1.342;2023-01-26T02:09:19;101526.68;;;0.36;36.26
63339;BME280;47485;51.378;-1.342;2023-01-26T02:11:47;101528.12;;;-1.17;38.07
63339;BME280;47485;51.378;-1.342;2023-01-26T02:14:14;101530.63;;;-2.67;38.80
63339;BME280;47485;51.378;-1.342;2023-01-26T02:16:41;101527.77;;;0.22;36.99
63339;BME280;47485;51.378;-1.342;2023-01-26T02:19:18;101531.97;;;-2.74;39.55
63339;BME280;47485;51.378;-1.342;2023-01-26T02:21:48;101522.92;;;2.49;34.93
63339;BME280;47485;51.378;-1.342;2023-01-26T02:24:20;101533.44;;;-2.11;38.70
63339;BME280;47485;51.378;-1.342;2023-01-26T02:26:48;101524.46;;;0.33;35.59
63339;BME280;47485;51.378;-1.342;2023-01-26T02:29:14;101534.84;;;-2.03;38.56
63339;BME280;47485;51.378;-1.342;2023-01-26T02:31:41;101533.29;;;-0.89;37.58
63339;BME280;47485;51.378;-1.342;2023-01-26T02:34:08;101526.85;;;0.22;35.96
63339;BME280;47485;51.378;-1.342;2023-01-26T02:36:35;101528.18;;;0.47;35.50
63339;BME280;47485;51.378;-1.342;2023-01-26T02:39:24;101533.99;;;-0.43;36.22
63339;BME280;47485;51.378;-1.342;2023-01-26T02:41:53;101543.69;;;-2.67;38.98
63339;BME280;47485;51.378;-1.342;2023-01-26T02:44:20;101547.39;;;-4.11;40.58
63339;BME280;47485;51.378;-1.342;2023-01-26T02:46:47;101549.44;;;-2.51;38.64
63339;BME280;47485;51.378;-1.342;2023-01-26T02:49:14;101547.53;;;-2.00;39.23
63339;BME280;47485;51.378;-1.342;2023-01-26T02:51:41;101546.10;;;0.70;35.95
63339;BME280;47485;51.378;-1.342;2023-01-26T02:54:09;101550.04;;;-2.41;38.00
63339;BME280;47485;51.378;-1.342;2023-01-26T02:56:36;101548.34;;;-2.39;39.89
63339;BME280;47485;51.378;-1.342;2023-01-26T02:59:02;101551.37;;;-3.59;41.85
63339;BME280;47485;51.378;-1.342;2023-01-26T03:01:29;101551.66;;;-3.82;41.67
63339;BME280;47485;51.378;-1.342;2023-01-26T03:03:56;101550.64;;;-0.57;38.13
63339;BME280;47485;51.378;-1.342;2023-01-26T03:06:23;101557.61;;;-3.25;40.42
63339;BME280;47485;51.378;-1.342;2023-01-26T03:08:49;101559.31;;;-4.58;41.85
63339;BME280;47485;51.378;-1.342;2023-01-26T03:11:16;101553.36;;;0.19;37.32
63339;BME280;47485;51.378;-1.342;2023-01-26T03:13:43;101551.72;;;-0.38;36.92
63339;BME280;47485;51.378;-1.342;2023-01-26T03:16:10;101552.49;;;-2.59;39.27
63339;BME280;47485;51.378;-1.342;2023-01-26T03:18:37;101545.73;;;2.55;35.17
63339;BME280;47485;51.378;-1.342;2023-01-26T03:21:06;101554.36;;;-2.39;37.91
63339;BME280;47485;51.378;-1.342;2023-01-26T03:23:35;101557.23;;;-1.21;37.18
63339;BME280;47485;51.378;-1.342;2023-01-26T03:26:02;101563.58;;;-1.67;37.35
63339;BME280;47485;51.378;-1.342;2023-01-26T03:28:28;101556.75;;;-0.79;37.04
63339;BME280;47485;51.378;-1.342;2023-01-26T03:30:56;101560.50;;;-0.65;37.78
63339;BME280;47485;51.378;-1.342;2023-01-26T03:33:23;101559.35;;;-0.75;36.96
63339;BME280;47485;51.378;-1.342;2023-01-26T03:35:52;101563.19;;;-1.30;38.30
63339;BME280;47485;51.378;-1.342;2023-01-26T03:38:20;101560.58;;;-1.99;38.68
63339;BME280;47485;51.378;-1.342;2023-01-26T03:40:47;101565.12;;;-3.22;39.79
63339;BME280;47485;51.378;-1.342;2023-01-26T03:43:14;101558.71;;;-0.40;37.51
63339;BME280;47485;51.378;-1.342;2023-01-26T03:45:40;101565.67;;;-1.79;37.29
63339;BME280;47485;51.378;-1.342;2023-01-26T03:48:09;101572.24;;;-3.90;40.13
63339;BME280;47485;51.378;-1.342;2023-01-26T03:50:36;101574.58;;;-4.43;40.96
63339;BME280;47485;51.378;-1.342;2023-01-26T03:53:11;101565.06;;;0.59;36.27
63339;BME280;47485;51.378;-1.342;2023-01-26T03:55:38;101564.10;;;0.85;35.42
63339;BME280;47485;51.378;-1.342;2023-01-26T03:58:05;101572.40;;;-1.72;39.71
63339;BME280;47485;51.378;-1.342;2023-01-26T04:00:32;101572.39;;;-4.36;41.06
63339;BME280;47485;51.378;-1.342;2023-01-26T04:02:59;101565.78;;;0.54;35.73
63339;BME280;47485;51.378;-1.342;2023-01-26T04:05:26;101570.83;;;-0.65;36.42
63339;BME280;47485;51.378;-1.342;2023-01-26T04:07:52;101571.44;;;-0.48;36.11
63339;BME280;47485;51.378;-1.342;2023-01-26T04:10:19;101569.35;;;0.40;34.87
63339;BME280;47485;51.378;-1.342;2023-01-26T04:12:47;101567.46;;;1.00;35.09
63339;BME280;47485;51.378;-1.342;2023-01-26T04:15:13;101571.57;;;1.07;34.90
63339;BME280;47485;51.378;-1.342;2023-01-26T04:17:40;101575.66;;;0.76;34.97
63339;BME280;47485;51.378;-1.342;2023-01-26T04:20:09;101580.53;;;1.14;35.13
63339;BME280;47485;51.378;-1.342;2023-01-26T04:22:37;101585.15;;;-3.24;38.93
63339;BME280;47485;51.378;-1.342;2023-01-26T04:25:05;101573.94;;;-3.35;40.58
63339;BME280;47485;51.378;-1.342;2023-01-26T04:27:32;101574.00;;;-4.22;41.44
63339;BME280;47485;51.378;-1.342;2023-01-26T04:29:59;101580.57;;;-2.51;40.17
63339;BME280;47485;51.378;-1.342;2023-01-26T04:32:26;101584.97;;;-3.60;42.69
63339;BME280;47485;51.378;-1.342;2023-01-26T04:34:52;101594.87;;;-6.11;44.53
63339;BME280;47485;51.378;-1.342;2023-01-26T04:37:19;101595.71;;;-2.56;42.34
63339;BME280;47485;51.378;-1.342;2023-01-26T04:39:46;101592.75;;;-3.16;41.81
63339;BME280;47485;51.378;-1.342;2023-01-26T04:42:13;101595.77;;;-4.79;43.04
63339;BME280;47485;51.378;-1.342;2023-01-26T04:44:40;101597.76;;;-3.76;41.54
63339;BME280;47485;51.378;-1.342;2023-01-26T04:47:08;101603.53;;;-4.14;43.03
63339;BME280;47485;51.378;-1.342;2023-01-26T04:49:35;101603.44;;;-5.13;42.85
63339;BME280;47485;51.378;-1.342;2023-01-26T04:52:02;101596.32;;;-3.77;41.97
63339;BME280;47485;51.378;-1.342;2023-01-26T04:54:28;101592.51;;;-1.74;37.97
63339;BME280;47485;51.378;-1.342;2023-01-26T04:56:56;101598.78;;;-5.87;44.48
63339;BME280;47485;51.378;-1.342;2023-01-26T04:59:23;101602.16;;;-6.61;45.82
63339;BME280;47485;51.378;-1.342;2023-01-26T05:01:50;101593.54;;;-2.54;40.83
63339;BME280;47485;51.378;-1.342;2023-01-26T05:04:17;101597.27;;;-1.67;39.72
63339;BME280;47485;51.378;-1.342;2023-01-26T05:06:44;101598.09;;;-3.60;40.27
63339;BME280;47485;51.378;-1.342;2023-01-26T05:09:11;101594.58;;;-5.01;42.64
63339;BME280;47485;51.378;-1.342;2023-01-26T05:11:37;101592.50;;;-1.14;39.27
63339;BME280;47485;51.378;-1.342;2023-01-26T05:14:04;101587.87;;;-0.05;36.98
63339;BME280;47485;51.378;-1.342;2023-01-26T05:16:31;101590.94;;;0.16;36.96
63339;BME280;47485;51.378;-1.342;2023-01-26T05:18:58;101594.75;;;-1.69;38.10
63339;BME280;47485;51.378;-1.342;2023-01-26T05:21:25;101602.36;;;-5.55;42.89
63339;BME280;47485;51.378;-1.342;2023-01-26T05:23:52;101595.86;;;-4.77;42.55
63339;BME280;47485;51.378;-1.342;2023-01-26T05:26:19;101586.90;;;-3.03;39.86
63339;BME280;47485;51.378;-1.342;2023-01-26T05:28:45;101588.32;;;-5.41;42.62
63339;BME280;47485;51.378;-1.342;2023-01-26T05:31:13;101585.80;;;-3.78;40.42
63339;BME280;47485;51.378;-1.342;2023-01-26T05:33:39;101586.31;;;-1.42;39.78
63339;BME280;47485;51.378;-1.342;2023-01-26T05:36:07;101586.80;;;-2.65;40.00
63339;BME280;47485;51.378;-1.342;2023-01-26T05:38:34;101585.13;;;-1.28;39.39
63339;BME280;47485;51.378;-1.342;2023-01-26T05:41:01;101587.48;;;-4.56;40.70
63339;BME280;47485;51.378;-1.342;2023-01-26T05:43:28;101585.70;;;-0.90;38.01
63339;BME280;47485;51.378;-1.342;2023-01-26T05:45:54;101594.36;;;-4.82;42.67
63339;BME280;47485;51.378;-1.342;2023-01-26T05:48:21;101594.96;;;-2.18;41.37
63339;BME280;47485;51.378;-1.342;2023-01-26T05:50:48;101596.30;;;-6.44;45.39
63339;BME280;47485;51.378;-1.342;2023-01-26T05:53:15;101590.64;;;-1.69;40.26
63339;BME280;47485;51.378;-1.342;2023-01-26T05:55:42;101596.68;;;-3.52;41.68
63339;BME280;47485;51.378;-1.342;2023-01-26T05:58:10;101601.42;;;-1.37;39.71
63339;BME280;47485;51.378;-1.342;2023-01-26T06:00:37;101601.36;;;-2.76;40.50
63339;BME280;47485;51.378;-1.342;2023-01-26T06:03:03;101601.19;;;-2.69;39.90
63339;BME280;47485;51.378;-1.342;2023-01-26T06:05:30;101605.78;;;-2.15;40.13
63339;BME280;47485;51.378;-1.342;2023-01-26T06:07:57;101610.12;;;-2.67;39.82
63339;BME280;47485;51.378;-1.342;2023-01-26T06:10:24;101616.44;;;-4.25;41.75
63339;BME280;47485;51.378;-1.342;2023-01-26T06:12:51;101616.25;;;-4.24;41.22
63339;BME280;47485;51.378;-1.342;2023-01-26T06:15:18;101615.91;;;-3.18;42.50
63339;BME280;47485;51.378;-1.342;2023-01-26T06:17:45;101623.02;;;-5.43;42.76
63339;BME280;47485;51.378;-1.342;2023-01-26T06:20:12;101629.89;;;-3.01;43.09
63339;BME280;47485;51.378;-1.342;2023-01-26T06:22:39;101635.33;;;-3.97;43.31
63339;BME280;47485;51.378;-1.342;2023-01-26T06:25:06;101633.41;;;-5.71;43.48
63339;BME280;47485;51.378;-1.342;2023-01-26T06:27:34;101629.47;;;-3.95;41.14
63339;BME280;47485;51.378;-1.342;2023-01-26T06:30:01;101629.46;;;-2.18;40.03
63339;BME280;47485;51.378;-1.342;2023-01-26T06:32:27;101633.14;;;-4.52;41.84
63339;BME280;47485;51.378;-1.342;2023-01-26T06:34:54;101632.87;;;-0.06;38.01
63339;BME280;47485;51.378;-1.342;2023-01-26T06:37:21;101639.83;;;-3.39;40.01
63339;BME280;47485;51.378;-1.342;2023-01-26T06:39:48;101642.62;;;-5.01;42.58
63339;BME280;47485;51.378;-1.342;2023-01-26T06:42:14;101640.17;;;-2.46;40.34
63339;BME280;47485;51.378;-1.342;2023-01-26T06:44:41;101643.32;;;-2.54;39.42
63339;BME280;47485;51.378;-1.342;2023-01-26T06:47:09;101638.51;;;0.24;36.36
63339;BME280;47485;51.378;-1.342;2023-01-26T06:49:36;101649.61;;;-1.47;37.98
63339;BME280;47485;51.378;-1.342;2023-01-26T06:52:04;101651.22;;;-2.61;39.79
63339;BME280;47485;51.378;-1.342;2023-01-26T06:54:31;101658.11;;;-4.44;41.96
63339;BME280;47485;51.378;-1.342;2023-01-26T06:56:58;101657.19;;;-1.73;39.12
63339;BME280;47485;51.378;-1.342;2023-01-26T06:59:25;101664.63;;;-1.38;38.74
63339;BME280;47485;51.378;-1.342;2023-01-26T07:01:52;101663.92;;;-2.63;39.94
63339;BME280;47485;51.378;-1.342;2023-01-26T07:04:18;101655.44;;;0.22;35.42
63339;BME280;47485;51.378;-1.342;2023-01-26T07:06:45;101669.46;;;-1.14;36.58
63339;BME280;47485;51.378;-1.342;2023-01-26T07:09:12;101670.77;;;-3.33;39.63
63339;BME280;47485;51.378;-1.342;2023-01-26T07:11:39;101667.57;;;-0.10;38.06
63339;BME280;47485;51.378;-1.342;2023-01-26T07:14:06;101658.62;;;-1.35;37.61
63339;BME280;47485;51.378;-1.342;2023-01-26T07:16:33;101669.77;;;-3.92;40.95
63339;BME280;47485;51.378;-1.342;2023-01-26T07:19:00;101674.31;;;-2.89;40.46
63339;BME280;47485;51.378;-1.342;2023-01-26T07:21:27;101674.06;;;0.03;37.01
63339;BME280;47485;51.378;-1.342;2023-01-26T07:23:55;101686.77;;;-4.42;39.51
63339;BME280;47485;51.378;-1.342;2023-01-26T07:26:22;101689.46;;;-1.61;38.44
63339;BME280;47485;51.378;-1.342;2023-01-26T07:28:49;101689.23;;;0.64;35.01
63339;BME280;47485;51.378;-1.342;2023-01-26T07:31:16;101684.82;;;3.20;33.16
63339;BME280;47485;51.378;-1.342;2023-01-26T07:33:43;101693.21;;;1.56;34.38
63339;BME280;47485;51.378;-1.342;2023-01-26T07:36:10;101694.06;;;0.32;34.80
63339;BME280;47485;51.378;-1.342;2023-01-26T07:38:38;101697.77;;;-1.44;36.33
63339;BME280;47485;51.378;-1.342;2023-01-26T07:41:07;101693.90;;;0.51;34.41
63339;BME280;47485;51.378;-1.342;2023-01-26T07:43:35;101689.39;;;3.93;31.86
63339;BME280;47485;51.378;-1.342;2023-01-26T07:46:02;101691.62;;;3.41;31.80
63339;BME280;47485;51.378;-1.342;2023-01-26T07:48:29;101689.97;;;1.45;32.36
63339;BME280;47485;51.378;-1.342;2023-01-26T07:50:57;101692.48;;;2.63;32.01
63339;BME280;47485;51.378;-1.342;2023-01-26T07:53:25;101684.21;;;3.07;31.01
63339;BME280;47485;51.378;-1.342;2023-01-26T07:55:52;101688.24;;;1.98;32.87
63339;BME280;47485;51.378;-1.342;2023-01-26T07:58:18;101678.96;;;3.84;30.00
63339;BME280;47485;51.378;-1.342;2023-01-26T08:00:45;101680.03;;;2.64;31.23
63339;BME280;47485;51.378;-1.342;2023-01-26T08:03:12;101680.83;;;3.35;30.79
63339;BME280;47485;51.378;-1.342;2023-01-26T08:05:39;101681.80;;;3.65;29.47
63339;BME280;47485;51.378;-1.342;2023-01-26T08:08:06;101682.47;;;6.45;27.55
63339;BME280;47485;51.378;-1.342;2023-01-26T08:10:32;101694.17;;;4.24;29.07
63339;BME280;47485;51.378;-1.342;2023-01-26T08:12:59;101696.03;;;4.95;29.30
63339;BME280;47485;51.378;-1.342;2023-01-26T08:15:27;101694.13;;;7.39;27.98
63339;BME280;47485;51.378;-1.342;2023-01-26T08:17:55;101692.71;;;4.84;29.53
63339;BME280;47485;51.378;-1.342;2023-01-26T08:20:22;101702.71;;;-1.53;33.90
63339;BME280;47485;51.378;-1.342;2023-01-26T08:22:49;101696.43;;;4.56;29.50
63339;BME280;47485;51.378;-1.342;2023-01-26T08:25:16;101695.61;;;3.55;29.92
63339;BME280;47485;51.378;-1.342;2023-01-26T08:27:42;101698.12;;;4.20;29.29
63339;BME280;47485;51.378;-1.342;2023-01-26T08:30:11;101697.83;;;5.07;29.69
63339;BME280;47485;51.378;-1.342;2023-01-26T08:32:40;101692.02;;;4.22;30.72
63339;BME280;47485;51.378;-1.342;2023-01-26T08:35:08;101694.49;;;5.06;30.92
63339;BME280;47485;51.378;-1.342;2023-01-26T08:37:34;101695.27;;;5.02;30.76
63339;BME280;47485;51.378;-1.342;2023-01-26T08:40:01;101695.06;;;4.36;32.43
63339;BME280;47485;51.378;-1.342;2023-01-26T08:42:28;101699.45;;;1.79;34.93
63339;BME280;47485;51.378;-1.342;2023-01-26T08:44:55;101693.50;;;3.73;34.02
63339;BME280;47485;51.378;-1.342;2023-01-26T08:47:22;101694.69;;;2.59;34.29
63339;BME280;47485;51.378;-1.342;2023-01-26T08:49:49;101699.99;;;1.91;35.40
63339;BME280;47485;51.378;-1.342;2023-01-26T08:52:16;101706.69;;;1.20;36.76
63339;BME280;47485;51.378;-1.342;2023-01-26T08:54:42;101705.36;;;2.81;34.15
63339;BME280;47485;51.378;-1.342;2023-01-26T08:57:10;101711.15;;;3.45;33.72
63339;BME280;47485;51.378;-1.342;2023-01-26T08:59:37;101709.84;;;1.28;34.17
63339;BME280;47485;51.378;-1.342;2023-01-26T09:02:04;101708.81;;;2.91;31.57
63339;BME280;47485;51.378;-1.342;2023-01-26T09:04:32;101710.90;;;5.84;29.86
63339;BME280;47485;51.378;-1.342;2023-01-26T09:06:58;101709.12;;;5.12;29.18
63339;BME280;47485;51.378;-1.342;2023-01-26T09:09:25;101710.36;;;4.90;31.35
63339;BME280;47485;51.378;-1.342;2023-01-26T09:11:53;101709.54;;;4.45;31.73
63339;BME280;47485;51.378;-1.342;2023-01-26T09:14:21;101709.53;;;1.31;33.46
63339;BME280;47485;51.378;-1.342;2023-01-26T09:16:47;101712.85;;;1.52;33.42
63339;BME280;47485;51.378;-1.342;2023-01-26T09:19:15;101710.58;;;2.87;30.92
63339;BME280;47485;51.378;-1.342;2023-01-26T09:21:41;101712.69;;;3.49;30.19
63339;BME280;47485;51.378;-1.342;2023-01-26T09:24:09;101725.23;;;3.73;29.43
63339;BME280;47485;51.378;-1.342;2023-01-26T09:26:36;101728.56;;;5.81;28.87
63339;BME280;47485;51.378;-1.342;2023-01-26T09:29:03;101728.01;;;3.32;30.15
63339;BME280;47485;51.378;-1.342;2023-01-26T09:31:30;101726.31;;;5.48;29.99
63339;BME280;47485;51.378;-1.342;2023-01-26T09:33:57;101724.08;;;4.03;30.05
63339;BME280;47485;51.378;-1.342;2023-01-26T09:36:25;101729.83;;;4.73;30.46
63339;BME280;47485;51.378;-1.342;2023-01-26T09:38:52;101725.37;;;1.17;32.29
63339;BME280;47485;51.378;-1.342;2023-01-26T09:41:36;101728.32;;;1.71;32.92
63339;BME280;47485;51.378;-1.342;2023-01-26T09:44:11;101732.92;;;3.55;31.84
63339;BME280;47485;51.378;-1.342;2023-01-26T09:46:53;101729.50;;;4.49;31.02
63339;BME280;47485;51.378;-1.342;2023-01-26T09:49:25;101732.33;;;2.62;31.48
63339;BME280;47485;51.378;-1.342;2023-01-26T09:52:01;101728.49;;;5.23;28.99
63339;BME280;47485;51.378;-1.342;2023-01-26T09:54:32;101730.63;;;5.40;30.21
63339;BME280;47485;51.378;-1.342;2023-01-26T09:57:00;101733.31;;;4.07;31.92
63339;BME280;47485;51.378;-1.342;2023-01-26T09:59:33;101731.12;;;2.98;33.27
63339;BME280;47485;51.378;-1.342;2023-01-26T10:02:09;101731.76;;;3.72;31.72
63339;BME280;47485;51.378;-1.342;2023-01-26T10:04:43;101739.50;;;-0.76;35.54
63339;BME280;47485;51.378;-1.342;2023-01-26T10:07:13;101748.49;;;2.57;32.70
63339;BME280;47485;51.378;-1.342;2023-01-26T10:09:44;101743.18;;;3.79;31.80
63339;BME280;47485;51.378;-1.342;2023-01-26T10:12:16;101745.41;;;1.91;33.43
63339;BME280;47485;51.378;-1.342;2023-01-26T10:14:48;101753.28;;;0.82;34.30
63339;BME280;47485;51.378;-1.342;2023-01-26T10:17:18;101759.90;;;1.75;34.51
63339;BME280;47485;51.378;-1.342;2023-01-26T10:19:48;101769.13;;;-2.16;38.42
63339;BME280;47485;51.378;-1.342;2023-01-26T10:22:24;101766.00;;;1.54;34.44
63339;BME280;47485;51.378;-1.342;2023-01-26T10:24:55;101768.96;;;0.07;37.07
63339;BME280;47485;51.378;-1.342;2023-01-26T10:27:22;101768.93;;;1.11;36.23
63339;BME280;47485;51.378;-1.342;2023-01-26T10:29:49;101757.22;;;3.63;32.80
63339;BME280;47485;51.378;-1.342;2023-01-26T10:32:16;101759.63;;;4.21;32.88
63339;BME280;47485;51.378;-1.342;2023-01-26T10:34:44;101771.21;;;0.30;36.91
63339;BME280;47485;51.378;-1.342;2023-01-26T10:37:19;101770.09;;;0.12;36.39
63339;BME280;47485;51.378;-1.342;2023-01-26T10:39:57;101770.10;;;3.30;34.79
63339;BME280;47485;51.378;-1.342;2023-01-26T10:42:28;101767.51;;;1.85;34.39
63339;BME280;47485;51.378;-1.342;2023-01-26T10:44:55;101764.77;;;4.57;32.37
63339;BME280;47485;51.378;-1.342;2023-01-26T10:47:22;101761.35;;;2.41;33.02
63339;BME280;47485;51.378;-1.342;2023-01-26T10:49:49;101757.55;;;4.61;31.66
63339;BME280;47485;51.378;-1.342;2023-01-26T10:52:18;101752.98;;;5.95;30.38
63339;BME280;47485;51.378;-1.342;2023-01-26T10:54:45;101756.76;;;5.93;31.23
63339;BME280;47485;51.378;-1.342;2023-01-26T10:57:16;101753.61;;;4.02;34.14
63339;BME280;47485;51.378;-1.342;2023-01-26T10:59:49;101760.19;;;4.07;34.62
63339;BME280;47485;51.378;-1.342;2023-01-26T11:02:21;101762.68;;;1.73;36.74
63339;BME280;47485;51.378;-1.342;2023-01-26T11:05:02;101763.45;;;1.85;37.12
63339;BME280;47485;51.378;-1.342;2023-01-26T11:07:32;101769.00;;;3.00;35.66
63339;BME280;47485;51.378;-1.342;2023-01-26T11:10:16;101769.31;;;4.88;36.02
63339;BME280;47485;51.378;-1.342;2023-01-26T11:12:44;101759.81;;;4.82;34.72
63339;BME280;47485;51.378;-1.342;2023-01-26T11:15:16;101758.72;;;5.13;33.73
63339;BME280;47485;51.378;-1.342;2023-01-26T11:17:50;101759.89;;;4.44;33.82
63339;BME280;47485;51.378;-1.342;2023-01-26T11:20:33;101759.83;;;5.06;33.95
63339;BME280;47485;51.378;-1.342;2023-01-26T11:23:10;101761.50;;;3.95;33.48
63339;BME280;47485;51.378;-1.342;2023-01-26T11:25:47;101766.79;;;2.80;34.65
63339;BME280;47485;51.378;-1.342;2023-01-26T11:28:32;101760.39;;;5.77;31.61
63339;BME280;47485;51.378;-1.342;2023-01-26T11:31:14;101761.59;;;2.57;35.88
63339;BME280;47485;51.378;-1.342;2023-01-26T11:33:48;101763.59;;;6.44;32.77
63339;BME280;47485;51.378;-1.342;2023-01-26T11:36:23;101763.90;;;5.16;33.14
63339;BME280;47485;51.378;-1.342;2023-01-26T11:38:56;101762.84;;;3.81;35.20
63339;BME280;47485;51.378;-1.342;2023-01-26T11:41:39;101753.18;;;3.76;34.66
63339;BME280;47485;51.378;-1.342;2023-01-26T11:44:22;101750.75;;;2.79;35.17
63339;BME280;47485;51.378;-1.342;2023-01-26T11:47:00;101747.78;;;5.27;33.12
63339;BME280;47485;51.378;-1.342;2023-01-26T11:49:45;101753.71;;;4.10;35.12
63339;BME280;47485;51.378;-1.342;2023-01-26T11:52:25;101749.37;;;4.38;33.28
63339;BME280;47485;51.378;-1.342;2023-01-26T11:55:12;101746.90;;;0.09;39.87
63339;BME280;47485;51.378;-1.342;2023-01-26T11:57:49;101742.37;;;1.38;39.02
63339;BME280;47485;51.378;-1.342;2023-01-26T12:00:23;101740.14;;;1.73;38.02
63339;BME280;47485;51.378;-1.342;2023-01-26T12:02:57;101742.47;;;0.81;38.27
63339;BME280;47485;51.378;-1.342;2023-01-26T12:05:28;101739.80;;;3.53;36.42
63339;BME280;47485;51.378;-1.342;2023-01-26T12:08:01;101745.17;;;1.45;37.40
63339;BME280;47485;51.378;-1.342;2023-01-26T12:10:34;101744.20;;;-0.08;40.81
63339;BME280;47485;51.378;-1.342;2023-01-26T12:13:09;101735.31;;;2.70;35.84
63339;BME280;47485;51.378;-1.342;2023-01-26T12:15:38;101734.90;;;-0.03;38.98
63339;BME280;47485;51.378;-1.342;2023-01-26T12:18:13;101749.69;;;-1.59;41.19
63339;BME280;47485;51.378;-1.342;2023-01-26T12:20:45;101746.65;;;-0.04;40.63
63339;BME280;47485;51.378;-1.342;2023-01-26T12:23:26;101741.14;;;0.96;38.85
63339;BME280;47485;51.378;-1.342;2023-01-26T12:25:57;101741.03;;;2.49;37.76
63339;BME280;47485;51.378;-1.342;2023-01-26T12:28:28;101734.37;;;3.46;34.90
63339;BME280;47485;51.378;-1.342;2023-01-26T12:31:02;101730.77;;;2.37;35.75
63339;BME280;47485;51.378;-1.342;2023-01-26T12:33:30;101729.43;;;5.06;33.58
63339;BME280;47485;51.378;-1.342;2023-01-26T12:36:07;101729.18;;;4.36;32.94
63339;BME280;47485;51.378;-1.342;2023-01-26T12:38:48;101722.27;;;4.12;32.25
63339;BME280;47485;51.378;-1.342;2023-01-26T12:41:29;101725.48;;;0.28;35.44
63339;BME280;47485;51.378;-1.342;2023-01-26T12:44:08;101718.23;;;2.92;35.73
63339;BME280;47485;51.378;-1.342;2023-01-26T12:46:40;101723.67;;;-1.53;40.53
63339;BME280;47485;51.378;-1.342;2023-01-26T12:49:14;101719.91;;;-2.35;42.11
63339;BME280;47485;51.378;-1.342;2023-01-26T12:51:48;101718.62;;;0.03;39.60
63339;BME280;47485;51.378;-1.342;2023-01-26T12:54:21;101726.10;;;-0.20;42.27